Time;durP1;ratioP1;P1;durP2;ratioP2;P2;SDS_P1;SDS_P2;PMS_P1;PMS_P2;Temp;Humidity;BMP_temperature;BMP_pressure;BME280_temperature;BME280_humidity;BME280_pressure;Samples;Min_cycle;Max_cycle;Signal;HPM_P1;HPM_P2
2022/05/09 00:00:16;;;;;;;8.70;1.30;;;;;;;5.67;69.84;97002.94;5073566;28;20021;-62
2022/05/09 00:02:42;;;;;;;3.38;1.10;;;;;;;5.61;69.50;97004.75;5076824;28;20020;-62
2022/05/09 00:05:10;;;;;;;4.18;1.30;;;;;;;5.60;69.61;97010.81;5076703;28;20021;-63
2022/05/09 00:07:36;;;;;;;3.90;1.60;;;;;;;5.59;70.01;97003.88;5076806;28;20053;-63
2022/05/09 00:10:01;;;;;;;1.30;1.13;;;;;;;5.54;70.25;97006.56;5076694;28;20056;-63
2022/05/09 00:12:27;;;;;;;1.23;1.13;;;;;;;5.54;70.54;97004.78;5076650;28;20765;-62
2022/05/09 00:14:53;;;;;;;2.85;1.80;;;;;;;5.52;70.65;97000.50;5075340;28;20487;-62
2022/05/09 00:17:19;;;;;;;4.13;2.05;;;;;;;5.54;70.72;97001.38;5076708;28;20107;-63
2022/05/09 00:19:44;;;;;;;4.90;1.00;;;;;;;5.54;70.76;96996.16;5076510;28;20432;-63
2022/05/09 00:22:10;;;;;;;1.27;1.17;;;;;;;5.54;70.76;96997.00;5076594;28;20111;-62
2022/05/09 00:24:36;;;;;;;1.95;1.20;;;;;;;5.54;70.46;97002.19;5076408;28;20028;-63
2022/05/09 00:27:02;;;;;;;6.53;1.27;;;;;;;5.55;70.52;97001.34;5076349;28;20028;-63
2022/05/09 00:29:28;;;;;;;2.60;1.10;;;;;;;5.50;70.54;96990.13;5076314;28;20108;-63
2022/05/09 00:31:57;;;;;;;1.52;1.40;;;;;;;5.51;70.94;96993.59;5076357;28;20052;-63
2022/05/09 00:34:24;;;;;;;2.90;1.67;;;;;;;5.57;70.94;97002.16;5076308;28;20035;-62
2022/05/09 00:36:52;;;;;;;3.08;1.42;;;;;;;5.47;70.65;96997.94;5076217;28;20024;-63
2022/05/09 00:39:19;;;;;;;2.08;1.27;;;;;;;5.43;71.14;97004.06;5074507;28;20045;-63
2022/05/09 00:41:45;;;;;;;1.55;1.38;;;;;;;5.47;71.06;97002.28;5076027;28;20078;-63
2022/05/09 00:44:14;;;;;;;1.52;1.35;;;;;;;5.44;71.46;97001.44;5076083;28;20016;-62
2022/05/09 00:46:42;;;;;;;3.10;1.30;;;;;;;5.51;71.57;97001.38;5074766;28;20040;-62
2022/05/09 00:49:31;;;;;;;4.55;1.75;;;;;;;5.56;70.91;97002.19;5075891;28;20031;-63
2022/05/09 00:52:03;;;;;;;3.50;1.35;;;;;;;5.59;71.42;96993.50;5075930;28;20032;-63
2022/05/09 00:54:38;;;;;;;3.45;1.40;;;;;;;5.57;71.17;96994.38;5076003;28;20505;-63
2022/05/09 00:57:15;;;;;;;1.40;1.30;;;;;;;5.59;71.30;96994.38;5076032;28;20386;-62
2022/05/09 00:59:41;;;;;;;1.30;1.20;;;;;;;5.56;71.32;96999.59;5075586;28;20031;-62
2022/05/09 01:02:09;;;;;;;2.28;1.42;;;;;;;5.51;71.33;96989.25;5075722;28;20107;-61
2022/05/09 01:04:44;;;;;;;1.52;1.42;;;;;;;5.60;71.55;96992.63;5075661;28;20028;-63
2022/05/09 01:07:10;;;;;;;2.30;1.60;;;;;;;5.63;71.36;96996.03;5075747;28;20028;-63
2022/05/09 01:09:35;;;;;;;2.72;1.20;;;;;;;5.59;71.35;97003.88;5075616;28;20093;-63
2022/05/09 01:12:02;;;;;;;1.58;1.40;;;;;;;5.60;70.96;96990.88;5075042;28;20478;-62
2022/05/09 01:14:32;;;;;;;2.10;1.35;;;;;;;5.60;71.16;96987.44;5075490;28;20021;-63
2022/05/09 01:16:59;;;;;;;2.05;1.27;;;;;;;5.61;71.25;96989.16;5075501;28;20047;-63
2022/05/09 01:19:36;;;;;;;2.03;1.42;;;;;;;5.62;70.82;96990.88;5075485;28;20033;-63
2022/05/09 01:22:21;;;;;;;1.88;1.55;;;;;;;5.51;71.13;96991.00;5075401;28;20032;-63
2022/05/09 01:24:47;;;;;;;1.92;1.40;;;;;;;5.51;71.13;96988.41;5075281;28;20036;-62
2022/05/09 01:27:13;;;;;;;2.28;1.58;;;;;;;5.50;71.09;96990.13;5075240;28;20021;-63
2022/05/09 01:29:54;;;;;;;1.80;1.50;;;;;;;5.51;71.18;96986.66;5075312;28;20363;-63
2022/05/09 01:32:28;;;;;;;6.18;1.75;;;;;;;5.53;71.36;96984.03;5075268;28;20032;-63
2022/05/09 01:34:59;;;;;;;1.55;1.30;;;;;;;5.39;71.54;96981.63;5075267;28;20086;-63
2022/05/09 01:37:26;;;;;;;2.63;1.50;;;;;;;5.34;71.77;96985.97;5075171;28;20032;-63
2022/05/09 01:39:52;;;;;;;1.98;1.50;;;;;;;5.36;71.67;96986.84;5074736;28;20056;-63
2022/05/09 01:42:18;;;;;;;1.73;1.30;;;;;;;5.35;71.47;96985.09;5075134;28;20020;-63
2022/05/09 01:44:44;;;;;;;1.65;1.45;;;;;;;5.32;71.31;96980.81;5075016;28;20494;-63
2022/05/09 01:49:53;;;;;;;1.63;1.50;;;;;;;5.31;71.56;96977.38;5075127;28;20046;-63
2022/05/09 01:52:21;;;;;;;1.30;1.20;;;;;;;5.28;71.31;96985.19;5074783;28;20401;-62
2022/05/09 01:54:47;;;;;;;5.82;1.70;;;;;;;5.26;71.53;96976.53;5074707;28;20020;-62
2022/05/09 01:57:13;;;;;;;2.20;1.70;;;;;;;5.25;71.23;96977.41;5074686;28;20020;-63
2022/05/09 01:59:40;;;;;;;1.65;1.38;;;;;;;5.20;71.38;96976.59;5074591;28;20033;-62
2022/05/09 02:02:16;;;;;;;1.83;1.67;;;;;;;5.17;71.33;96980.09;5074569;28;20108;-63
2022/05/09 02:04:41;;;;;;;2.22;1.52;;;;;;;5.17;71.31;96982.69;5074537;28;20024;-63
2022/05/09 02:07:09;;;;;;;1.73;1.63;;;;;;;5.17;71.22;96981.81;5074481;28;20061;-62
2022/05/09 02:09:43;;;;;;;2.03;1.45;;;;;;;5.16;71.25;96986.16;5074521;28;20036;-61
2022/05/09 02:12:09;;;;;;;3.38;1.73;;;;;;;5.17;71.53;96979.22;5074288;28;20032;-61
2022/05/09 02:14:35;;;;;;;4.05;1.50;;;;;;;5.17;71.38;96987.88;5074377;28;20020;-63
2022/05/09 02:17:01;;;;;;;1.38;1.27;;;;;;;5.14;71.16;96980.09;5074342;28;20063;-62
2022/05/09 02:19:27;;;;;;;1.83;1.38;;;;;;;5.11;70.90;96985.31;5074204;28;20059;-63
2022/05/09 02:21:53;;;;;;;3.65;1.73;;;;;;;5.08;71.43;96974.97;5074153;28;20485;-63
2022/05/09 02:24:19;;;;;;;1.63;1.42;;;;;;;5.06;71.09;96979.34;5073248;28;20374;-63
2022/05/09 02:26:45;;;;;;;1.42;1.33;;;;;;;5.07;71.12;96988.81;5074091;28;20033;-63
2022/05/09 02:29:11;;;;;;;2.75;1.38;;;;;;;5.05;70.93;96988.84;5074099;28;20103;-63
2022/05/09 02:31:36;;;;;;;3.75;1.48;;;;;;;4.97;70.97;96977.66;5073971;28;20046;-63
2022/05/09 02:34:02;;;;;;;1.35;1.13;;;;;;;4.91;71.35;96980.31;5073934;28;20028;-62
2022/05/09 02:36:28;;;;;;;1.55;1.45;;;;;;;4.90;71.53;96981.16;5073899;28;20089;-62
2022/05/09 02:38:57;;;;;;;1.95;1.50;;;;;;;4.91;71.51;96977.72;5073478;28;20063;-63
2022/05/09 02:41:23;;;;;;;3.58;1.60;;;;;;;4.88;71.50;96977.75;5073844;28;20028;-63
2022/05/09 02:43:48;;;;;;;5.97;1.58;;;;;;;4.90;71.45;96981.16;5072604;28;20027;-63
2022/05/09 02:46:14;;;;;;;6.20;1.75;;;;;;;4.85;71.42;96983.81;5073696;28;20032;-62
2022/05/09 02:48:40;;;;;;;3.90;1.35;;;;;;;4.73;71.42;96989.94;5073663;28;20567;-63
2022/05/09 02:51:07;;;;;;;1.75;1.48;;;;;;;4.66;71.75;96986.53;5073731;28;20024;-63
2022/05/09 02:53:34;;;;;;;1.55;1.38;;;;;;;4.67;72.11;96988.25;5073940;28;20024;-62
2022/05/09 02:56:00;;;;;;;1.60;1.35;;;;;;;4.66;72.12;96989.13;5073931;28;20024;-62
2022/05/09 02:58:25;;;;;;;2.35;1.60;;;;;;;4.66;72.14;96996.03;5073627;28;20380;-63
2022/05/09 03:00:51;;;;;;;1.83;1.40;;;;;;;4.66;71.91;96998.63;5073370;28;20133;-63
2022/05/09 03:06:01;;;;;;;2.15;1.60;;;;;;;4.54;72.13;96992.69;5073522;28;20105;-63
2022/05/09 03:08:29;;;;;;;1.83;1.40;;;;;;;4.53;72.30;97003.06;5073408;28;20490;-64
2022/05/09 03:10:55;;;;;;;1.45;1.30;;;;;;;4.51;72.46;96989.22;5073253;28;20031;-63
2022/05/09 03:13:21;;;;;;;2.50;1.60;;;;;;;4.53;72.72;96990.97;5073281;28;20025;-62
2022/05/09 03:15:48;;;;;;;1.95;1.50;;;;;;;4.56;72.41;96992.66;5073300;28;20043;-64
2022/05/09 03:18:22;;;;;;;1.65;1.50;;;;;;;4.60;72.27;96999.53;5073282;28;20090;-64
2022/05/09 03:20:48;;;;;;;1.67;1.55;;;;;;;4.60;72.83;97004.72;5073315;28;20082;-63
2022/05/09 03:23:14;;;;;;;1.70;1.60;;;;;;;4.60;72.66;97009.06;5073223;28;20028;-63
2022/05/09 03:25:41;;;;;;;2.38;1.40;;;;;;;4.59;72.65;97005.59;5073197;28;20029;-63
2022/05/09 03:28:11;;;;;;;3.13;1.77;;;;;;;4.65;72.60;97009.88;5073186;28;20052;-62
2022/05/09 03:30:38;;;;;;;1.90;1.48;;;;;;;4.71;73.20;97011.56;5073308;28;20021;-63
2022/05/09 03:33:06;;;;;;;3.17;1.50;;;;;;;4.75;72.91;97014.13;5073104;28;20433;-62
2022/05/09 03:35:32;;;;;;;2.17;1.70;;;;;;;4.82;72.41;97014.97;5072884;28;20021;-63
2022/05/09 03:37:59;;;;;;;2.53;1.50;;;;;;;4.88;72.70;97017.47;5072872;28;20032;-63
2022/05/09 03:40:24;;;;;;;1.80;1.42;;;;;;;4.98;72.35;97013.09;5073048;28;20039;-63
2022/05/09 03:42:50;;;;;;;2.03;1.67;;;;;;;5.10;72.24;97014.72;5073081;28;20020;-63
2022/05/09 03:45:17;;;;;;;2.63;1.90;;;;;;;5.18;72.08;97019.88;5072978;28;20024;-63
2022/05/09 03:47:43;;;;;;;3.10;1.50;;;;;;;5.32;72.23;97022.31;5073002;28;20119;-63
2022/05/09 03:50:11;;;;;;;1.45;1.25;;;;;;;5.67;71.94;97028.03;5073096;28;20103;-62
2022/05/09 03:52:37;;;;;;;2.10;1.30;;;;;;;6.11;70.46;97025.81;5072984;28;20059;-64
2022/05/09 03:55:04;;;;;;;7.53;1.42;;;;;;;6.52;68.79;97020.09;5073034;28;20024;-63
2022/05/09 03:57:30;;;;;;;2.50;1.20;;;;;;;7.02;68.07;97019.38;5072867;28;20021;-63
2022/05/09 03:59:55;;;;;;;2.13;1.30;;;;;;;7.50;66.67;97021.19;5072717;28;20100;-63
2022/05/09 04:02:21;;;;;;;3.70;1.40;;;;;;;7.94;64.39;97028.16;5072851;28;20351;-63
2022/05/09 04:04:47;;;;;;;1.40;1.10;;;;;;;8.22;63.40;97027.63;5072727;28;20024;-63
2022/05/09 04:07:12;;;;;;;4.03;1.17;;;;;;;8.56;63.18;97018.25;5072982;28;20020;-62
2022/05/09 04:09:38;;;;;;;3.05;1.30;;;;;;;8.91;62.47;97018.34;5072716;28;20371;-63
2022/05/09 04:12:04;;;;;;;2.80;1.35;;;;;;;9.28;61.61;97027.88;5072788;28;20041;-64
2022/05/09 04:17:15;;;;;;;2.13;1.00;;;;;;;10.09;59.97;97027.50;5072802;28;20094;-64
2022/05/09 04:19:41;;;;;;;1.98;1.38;;;;;;;10.59;59.35;97023.47;5072557;28;20072;-63
2022/05/09 04:22:07;;;;;;;1.73;1.27;;;;;;;11.09;58.16;97032.41;5072604;28;20044;-63
2022/05/09 04:24:34;;;;;;;2.17;1.30;;;;;;;11.57;57.73;97033.44;5072641;28;20024;-63
2022/05/09 04:27:01;;;;;;;2.88;1.38;;;;;;;12.06;56.52;97031.75;5072595;28;20116;-62
2022/05/09 04:29:27;;;;;;;2.10;1.30;;;;;;;12.48;56.05;97030.25;5072611;28;20021;-63
2022/05/09 04:31:53;;;;;;;2.00;1.30;;;;;;;12.87;55.45;97021.78;5072523;28;20036;-63
2022/05/09 04:34:19;;;;;;;2.83;1.20;;;;;;;13.29;54.72;97028.88;5072396;28;20021;-63
2022/05/09 04:36:45;;;;;;;1.85;1.00;;;;;;;13.67;53.80;97033.47;5072651;28;20024;-63
2022/05/09 04:39:11;;;;;;;1.90;1.40;;;;;;;13.96;52.71;97020.84;5070815;28;20048;-63
2022/05/09 04:41:37;;;;;;;3.42;1.02;;;;;;;14.23;50.57;97031.03;5072514;28;20475;-62
2022/05/09 04:44:05;;;;;;;2.08;1.40;;;;;;;14.55;51.22;97034.00;5072538;28;20025;-62
2022/05/09 04:46:35;;;;;;;3.85;1.20;;;;;;;14.81;51.15;97026.66;5073567;28;20028;-63
2022/05/09 04:49:00;;;;;;;3.88;1.10;;;;;;;15.01;50.00;97028.38;5076026;28;20021;-62
2022/05/09 04:51:26;;;;;;;2.58;1.00;;;;;;;15.21;48.89;97034.47;5076041;28;20355;-63
2022/05/09 04:53:51;;;;;;;1.77;1.33;;;;;;;15.33;48.78;97025.09;5075892;28;20028;-62
2022/05/09 04:56:18;;;;;;;1.38;1.00;;;;;;;15.45;48.20;97031.53;5075937;28;20036;-62
2022/05/09 04:58:44;;;;;;;2.88;1.20;;;;;;;15.53;46.59;97033.75;5075753;28;20032;-62
2022/05/09 05:01:10;;;;;;;2.05;1.23;;;;;;;15.62;46.23;97038.56;5075875;28;20043;-62
2022/05/09 05:03:36;;;;;;;2.30;1.08;;;;;;;15.80;46.61;97035.94;5075680;28;20024;-63
2022/05/09 05:06:05;;;;;;;2.13;1.20;;;;;;;15.98;46.39;97039.44;5075775;28;20024;-62
2022/05/09 05:08:34;;;;;;;8.50;1.40;;;;;;;16.18;44.29;97045.47;5075498;28;20024;-62
2022/05/09 05:11:01;;;;;;;4.63;1.63;;;;;;;16.36;43.47;97040.13;5075451;28;20024;-62
2022/05/09 05:13:27;;;;;;;3.92;1.30;;;;;;;16.62;43.77;97043.16;5075452;28;20480;-63
2022/05/09 05:15:57;;;;;;;1.95;1.17;;;;;;;16.86;42.71;97038.28;5075505;28;20090;-62
2022/05/09 05:18:26;;;;;;;4.82;1.35;;;;;;;17.14;43.69;97046.50;5074099;28;20445;-62
2022/05/09 05:20:52;;;;;;;2.20;1.20;;;;;;;17.37;43.90;97041.69;5075402;28;20021;-62
2022/05/09 05:23:19;;;;;;;3.22;1.15;;;;;;;17.69;42.96;97041.59;5075528;28;20034;-62
2022/05/09 05:25:46;;;;;;;1.23;1.08;;;;;;;18.03;42.32;97044.88;5075041;28;20021;-62
2022/05/09 05:28:13;;;;;;;2.55;1.23;;;;;;;18.37;41.59;97049.09;5075278;28;20490;-63
2022/05/09 05:30:40;;;;;;;4.25;1.25;;;;;;;18.61;40.01;97048.50;5075349;28;20028;-62
2022/05/09 05:33:06;;;;;;;2.42;1.20;;;;;;;18.88;40.53;97040.63;5075229;28;20478;-61
2022/05/09 05:35:32;;;;;;;5.85;1.25;;;;;;;19.04;39.06;97053.72;5075143;28;20028;-62
2022/05/09 05:37:58;;;;;;;4.05;1.27;;;;;;;19.04;37.82;97048.44;5075147;28;20028;-62
2022/05/09 05:40:24;;;;;;;2.30;1.23;;;;;;;19.45;37.85;97048.50;5074863;28;20089;-62
2022/05/09 05:42:52;;;;;;;1.88;1.10;;;;;;;19.78;37.16;97043.69;5075097;28;20060;-62
2022/05/09 05:45:21;;;;;;;2.30;1.05;;;;;;;20.10;36.40;97043.31;5074913;28;20024;-62
2022/05/09 05:47:47;;;;;;;2.35;1.15;;;;;;;20.40;35.59;97043.94;5074885;28;20036;-62
2022/05/09 05:50:15;;;;;;;4.35;1.27;;;;;;;20.60;35.36;97052.31;5074847;28;20029;-62
2022/05/09 05:52:41;;;;;;;1.95;1.10;;;;;;;20.87;35.44;97052.16;5074844;28;20047;-62
2022/05/09 05:55:08;;;;;;;2.15;1.20;;;;;;;20.97;35.79;97055.00;5074740;28;20470;-61
2022/05/09 05:57:37;;;;;;;4.47;1.73;;;;;;;21.15;35.06;97057.28;5074587;28;20027;-62
2022/05/09 06:00:06;;;;;;;5.40;1.50;;;;;;;20.90;35.55;97051.09;5074452;28;20037;-61
2022/05/09 06:02:32;;;;;;;2.70;1.23;;;;;;;20.90;35.48;97056.41;5074519;28;20114;-61
2022/05/09 06:04:58;;;;;;;3.95;1.00;;;;;;;21.08;35.64;97049.75;5074514;28;20016;-61
2022/05/09 06:07:25;;;;;;;2.50;1.10;;;;;;;21.34;34.88;97056.78;5074660;28;20040;-62
2022/05/09 06:09:52;;;;;;;2.13;1.33;;;;;;;21.29;33.46;97061.59;5074533;28;20107;-62
2022/05/09 06:12:21;;;;;;;4.50;1.60;;;;;;;21.25;34.42;97062.81;5074401;28;20123;-61
2022/05/09 06:17:34;;;;;;;3.20;1.10;;;;;;;21.00;35.75;97057.44;5074620;28;20042;-61
2022/05/09 06:20:00;;;;;;;4.70;1.10;;;;;;;20.54;36.68;97053.59;5074087;28;20051;-61
2022/05/09 06:22:26;;;;;;;6.57;1.67;;;;;;;20.43;36.81;97052.53;5074379;28;20025;-62
2022/05/09 06:24:58;;;;;;;1.20;1.10;;;;;;;20.41;36.44;97058.94;5074270;28;20025;-61
2022/05/09 06:27:25;;;;;;;4.40;1.73;;;;;;;20.31;36.72;97058.72;5074318;28;20146;-62
2022/05/09 06:29:51;;;;;;;3.95;1.40;;;;;;;20.08;36.43;97048.72;5074069;28;20099;-62
2022/05/09 06:32:18;;;;;;;5.03;1.40;;;;;;;20.33;36.98;97046.19;5074066;28;20592;-61
2022/05/09 06:34:47;;;;;;;6.05;1.75;;;;;;;20.68;36.30;97055.28;5073902;28;20033;-62
2022/05/09 06:37:12;;;;;;;5.97;1.25;;;;;;;20.53;36.80;97062.53;5073893;28;20025;-61
2022/05/09 06:39:38;;;;;;;1.75;1.00;;;;;;;20.60;37.13;97054.97;5073598;28;20048;-62
2022/05/09 06:42:04;;;;;;;2.40;1.20;;;;;;;20.91;37.21;97051.00;5073887;28;20104;-62
2022/05/09 06:44:30;;;;;;;1.48;1.20;;;;;;;21.15;37.64;97049.31;5073820;28;20032;-62
2022/05/09 06:46:55;;;;;;;5.13;1.35;;;;;;;21.01;37.89;97045.03;5073940;28;20016;-62
2022/05/09 06:49:22;;;;;;;4.60;1.40;;;;;;;21.13;36.50;97044.09;5073658;28;20039;-61
2022/05/09 06:51:48;;;;;;;4.93;1.48;;;;;;;21.02;37.72;97046.69;5073678;28;20028;-62
2022/05/09 06:54:18;;;;;;;6.72;1.52;;;;;;;21.04;36.93;97050.94;5073821;28;20044;-61
2022/05/09 06:56:44;;;;;;;2.33;1.50;;;;;;;21.08;36.40;97049.75;5073603;28;20075;-61
2022/05/09 06:59:10;;;;;;;6.38;1.80;;;;;;;21.39;36.53;97051.97;5073363;28;20037;-61
2022/05/09 07:01:37;;;;;;;2.47;1.48;;;;;;;21.70;35.94;97047.00;5073436;28;20536;-61
2022/05/09 07:04:03;;;;;;;4.85;1.50;;;;;;;21.73;35.28;97045.91;5073552;28;20094;-61
2022/05/09 07:06:29;;;;;;;3.50;1.73;;;;;;;21.34;36.64;97057.63;5073525;28;20029;-62
2022/05/09 07:08:55;;;;;;;4.15;1.35;;;;;;;21.67;35.72;97049.91;5073030;28;20520;-62
2022/05/09 07:11:21;;;;;;;3.92;1.38;;;;;;;21.61;36.80;97052.19;5073303;28;20115;-62
2022/05/09 07:13:47;;;;;;;2.80;1.60;;;;;;;21.63;35.85;97052.91;5073406;28;20430;-62
2022/05/09 07:16:13;;;;;;;4.50;1.58;;;;;;;21.52;36.30;97057.22;5073402;28;20513;-61
2022/05/09 07:18:39;;;;;;;5.60;1.60;;;;;;;21.56;37.08;97058.72;5073290;28;20496;-62
2022/05/09 07:21:05;;;;;;;3.13;1.58;;;;;;;21.67;36.96;97049.91;5073255;28;20056;-61
2022/05/09 07:23:33;;;;;;;3.65;1.95;;;;;;;21.56;37.11;97053.41;5073218;28;20024;-61
2022/05/09 07:26:00;;;;;;;3.67;1.95;;;;;;;21.51;38.65;97050.22;5073267;28;20028;-61
2022/05/09 07:28:28;;;;;;;3.83;1.73;;;;;;;21.65;36.14;97051.84;5073246;28;20025;-61
2022/05/09 07:30:55;;;;;;;4.20;1.70;;;;;;;21.73;37.02;97059.22;5073064;28;20548;-61
2022/05/09 07:33:21;;;;;;;4.32;2.20;;;;;;;21.81;36.05;97048.91;5073086;28;20020;-61
2022/05/09 07:35:47;;;;;;;4.85;1.98;;;;;;;21.83;37.31;97052.28;5073057;28;20386;-61
2022/05/09 07:38:13;;;;;;;4.30;1.90;;;;;;;21.92;36.56;97047.22;5072841;28;20056;-62
2022/05/09 07:40:44;;;;;;;9.25;2.63;;;;;;;21.77;37.07;97044.78;5073082;28;20462;-61
2022/05/09 07:43:24;;;;;;;5.50;2.15;;;;;;;21.67;38.46;97054.41;5073078;28;20016;-62
2022/05/09 07:45:52;;;;;;;8.20;2.70;;;;;;;21.65;37.83;97051.84;5073079;28;20107;-62
2022/05/09 07:48:21;;;;;;;9.13;2.53;;;;;;;21.91;37.28;97043.72;5072843;28;20063;-62
2022/05/09 07:50:47;;;;;;;6.75;2.60;;;;;;;22.31;36.90;97057.59;5072870;28;20394;-62
2022/05/09 07:53:19;;;;;;;4.80;2.38;;;;;;;22.28;37.95;97057.81;5072856;28;20352;-62
2022/05/09 07:55:46;;;;;;;5.82;2.50;;;;;;;22.67;36.77;97052.16;5072943;28;20043;-62
2022/05/09 07:58:12;;;;;;;6.90;2.65;;;;;;;22.78;35.54;97054.81;5072772;28;20029;-62
2022/05/09 08:00:39;;;;;;;6.15;2.63;;;;;;;22.75;35.91;97059.56;5072641;28;20024;-62
2022/05/09 08:03:07;;;;;;;9.02;2.85;;;;;;;22.71;35.84;97065.13;5072804;28;20024;-62
2022/05/09 08:05:34;;;;;;;8.15;2.50;;;;;;;22.69;35.04;97059.06;5072811;28;20428;-62
2022/05/09 08:08:00;;;;;;;5.10;2.55;;;;;;;22.89;36.76;97064.63;5072849;28;20016;-62
2022/05/09 08:10:26;;;;;;;5.47;2.78;;;;;;;23.07;35.88;97064.97;5072704;28;20359;-62
2022/05/09 08:12:52;;;;;;;3.55;2.50;;;;;;;23.11;35.72;97062.88;5072693;28;20046;-62
2022/05/09 08:15:19;;;;;;;6.88;2.30;;;;;;;22.37;35.58;97059.78;5072619;28;20062;-62
2022/05/09 08:17:49;;;;;;;4.35;2.42;;;;;;;22.38;37.98;97063.28;5072704;28;20021;-62
2022/05/09 08:20:17;;;;;;;3.75;2.35;;;;;;;22.20;35.51;97069.06;5072517;28;20032;-62
2022/05/09 08:22:45;;;;;;;7.43;3.00;;;;;;;21.87;38.31;97065.34;5075839;28;20033;-62
2022/05/09 08:25:13;;;;;;;9.63;2.67;;;;;;;21.77;38.28;97063.41;5076389;28;20020;-62
2022/05/09 08:27:40;;;;;;;5.72;2.30;;;;;;;21.31;41.87;97065.84;5076350;28;20025;-62
2022/05/09 08:30:08;;;;;;;4.15;2.58;;;;;;;21.46;39.25;97065.66;5076364;28;20024;-62
2022/05/09 08:32:36;;;;;;;8.57;2.75;;;;;;;21.66;38.82;97066.84;5075031;28;20437;-62
2022/05/09 08:35:03;;;;;;;7.75;2.45;;;;;;;21.71;39.17;97069.16;5076262;28;20031;-62
2022/05/09 08:37:29;;;;;;;7.00;2.55;;;;;;;21.91;38.02;97067.66;5076119;28;20052;-62
2022/05/09 08:39:55;;;;;;;3.70;2.10;;;;;;;21.89;38.55;97072.28;5075726;28;20084;-62
2022/05/09 08:42:30;;;;;;;8.95;2.05;;;;;;;22.12;38.32;97067.00;5076061;28;20024;-62
2022/05/09 08:45:27;;;;;;;10.63;2.92;;;;;;;22.39;37.47;97070.31;5076237;28;20028;-62
2022/05/09 08:48:11;;;;;;;4.80;2.15;;;;;;;22.34;35.90;97070.66;5076068;28;20025;-62
2022/05/09 08:50:59;;;;;;;4.80;2.20;;;;;;;22.21;39.91;97068.09;5076001;28;20028;-62
2022/05/09 08:53:26;;;;;;;4.65;2.08;;;;;;;22.17;38.36;97070.16;5075877;28;20608;-62
2022/05/09 08:55:55;;;;;;;7.03;2.25;;;;;;;22.19;38.23;97062.06;5075947;28;20037;-62
2022/05/09 08:58:27;;;;;;;8.00;2.30;;;;;;;21.99;40.39;97068.91;5075772;28;20029;-62
2022/05/09 09:00:53;;;;;;;4.25;1.95;;;;;;;22.02;37.94;97061.53;5075806;28;20036;-62
2022/05/09 09:03:30;;;;;;;4.90;2.15;;;;;;;22.04;38.24;97061.41;5075804;28;20044;-62
2022/05/09 09:06:22;;;;;;;4.63;2.55;;;;;;;22.08;38.09;97066.41;5075653;28;20028;-62
2022/05/09 09:08:50;;;;;;;5.45;2.17;;;;;;;22.39;37.67;97065.00;5074449;28;20393;-62
2022/05/09 09:11:40;;;;;;;3.45;1.88;;;;;;;22.53;38.30;97069.22;5075580;28;20041;-62
2022/05/09 09:14:24;;;;;;;4.65;2.20;;;;;;;22.33;39.47;97072.47;5075557;28;20031;-62
2022/05/09 09:17:08;;;;;;;5.15;2.45;;;;;;;22.19;37.49;97068.22;5075455;28;20447;-62
2022/05/09 09:20:10;;;;;;;3.17;1.85;;;;;;;22.28;38.39;97071.16;5075458;28;20121;-62
2022/05/09 09:22:38;;;;;;;3.47;2.15;;;;;;;22.51;37.40;97072.00;5075497;28;20041;-62
2022/05/09 09:25:25;;;;;;;5.03;1.88;;;;;;;22.66;37.28;97064.63;5075394;28;20024;-62
2022/05/09 09:27:59;;;;;;;4.13;2.45;;;;;;;22.53;40.14;97066.53;5075368;28;20029;-63
2022/05/09 09:30:25;;;;;;;5.70;2.53;;;;;;;22.21;36.04;97063.63;5075460;28;20025;-62
2022/05/09 09:32:57;;;;;;;7.22;2.40;;;;;;;22.05;37.58;97061.31;5074939;28;20029;-62
2022/05/09 09:35:31;;;;;;;5.68;1.90;;;;;;;22.01;39.29;97056.31;5075245;28;20113;-62
2022/05/09 09:38:40;;;;;;;3.13;2.13;;;;;;;22.14;38.82;97062.41;5075170;28;20036;-62
2022/05/09 09:41:17;;;;;;;3.28;2.13;;;;;;;22.30;38.18;97056.72;5046302;28;20414;-62
2022/05/09 09:43:43;;;;;;;4.43;2.50;;;;;;;22.16;38.25;97057.81;5075143;28;20040;-62
2022/05/09 09:46:11;;;;;;;5.85;2.35;;;;;;;22.44;38.25;97053.00;5074938;28;20024;-62
2022/05/09 09:48:39;;;;;;;6.43;2.30;;;;;;;22.34;38.96;97049.34;5074980;28;20081;-62
2022/05/09 09:51:13;;;;;;;4.60;2.00;;;;;;;22.45;39.54;97052.00;5074883;28;20032;-62
2022/05/09 09:53:38;;;;;;;5.85;2.33;;;;;;;22.76;38.74;97050.59;5074857;28;20017;-62
2022/05/09 09:56:10;;;;;;;9.20;2.30;;;;;;;22.62;36.55;97051.69;5074788;28;20028;-62
2022/05/09 09:58:42;;;;;;;5.07;2.25;;;;;;;22.29;35.41;97049.72;5074717;28;20036;-62
2022/05/09 10:01:12;;;;;;;6.63;2.28;;;;;;;22.11;38.39;97046.66;5074608;28;20028;-61
2022/05/09 10:03:46;;;;;;;5.90;2.47;;;;;;;22.21;38.13;97047.63;5074628;28;20021;-62
2022/05/09 10:06:16;;;;;;;6.78;1.90;;;;;;;22.37;40.66;97043.78;5074533;28;20382;-62
2022/05/09 10:08:42;;;;;;;4.82;2.22;;;;;;;22.62;38.90;97044.53;5074581;28;20017;-63
2022/05/09 10:11:24;;;;;;;7.03;2.22;;;;;;;22.64;37.46;97050.59;5074426;28;20496;-62
2022/05/09 10:13:53;;;;;;;3.53;2.22;;;;;;;22.61;38.35;97048.19;5074287;28;20067;-62
2022/05/09 10:16:22;;;;;;;5.25;2.28;;;;;;;22.62;36.33;97043.69;5074354;28;20032;-62
2022/05/09 10:18:50;;;;;;;6.60;1.95;;;;;;;22.79;39.32;97051.16;5073020;28;20082;-62
2022/05/09 10:26:55;;;;;;;5.47;1.83;;;;;;;22.03;35.40;97047.25;5074200;28;20194;-62
2022/05/09 10:29:24;;;;;;;6.68;2.40;;;;;;;21.38;37.38;97038.78;5074061;28;20042;-62
2022/05/09 10:31:57;;;;;;;3.83;2.15;;;;;;;21.42;40.68;97037.59;5074112;28;20021;-62
2022/05/09 10:34:28;;;;;;;6.15;1.90;;;;;;;21.74;37.56;97037.00;5074102;28;20021;-62
2022/05/09 10:37:00;;;;;;;3.50;1.83;;;;;;;21.69;38.44;97034.69;5074032;28;20462;-62
2022/05/09 10:39:33;;;;;;;5.93;2.05;;;;;;;21.56;36.55;97039.22;5073795;28;20041;-63
2022/05/09 10:42:02;;;;;;;3.67;1.90;;;;;;;21.54;37.43;97042.00;5073871;28;20033;-62
2022/05/09 10:44:49;;;;;;;6.95;1.85;;;;;;;21.63;37.50;97036.94;5073111;28;20031;-62
2022/05/09 10:47:22;;;;;;;6.28;2.00;;;;;;;21.73;37.82;97032.63;5073722;28;20037;-62
2022/05/09 10:50:13;;;;;;;6.30;2.28;;;;;;;21.59;37.54;97039.81;5073764;28;20035;-62
2022/05/09 10:52:50;;;;;;;4.45;2.30;;;;;;;21.53;38.48;97029.66;5073625;28;20063;-62
2022/05/09 10:55:16;;;;;;;3.38;1.88;;;;;;;21.45;36.65;97026.72;5073631;28;20481;-62
2022/05/09 10:57:47;;;;;;;3.55;1.95;;;;;;;21.37;37.54;97029.13;5073605;28;20063;-62
2022/05/09 11:00:20;;;;;;;2.40;1.50;;;;;;;20.98;37.83;97030.13;5073409;28;20490;-62
2022/05/09 11:03:06;;;;;;;10.40;1.90;;;;;;;20.97;37.94;97025.75;5073528;28;20060;-62
2022/05/09 11:06:13;;;;;;;8.02;2.60;;;;;;;21.36;39.30;97041.56;5073526;28;20028;-63
2022/05/09 11:09:02;;;;;;;7.07;2.20;;;;;;;21.58;38.10;97035.47;5073098;28;20505;-62
2022/05/09 11:11:48;;;;;;;6.05;1.90;;;;;;;21.32;37.72;97037.44;5073432;28;20032;-62
2022/05/09 11:14:22;;;;;;;4.72;2.15;;;;;;;20.84;38.92;97031.09;5073455;28;20090;-62
2022/05/09 11:16:50;;;;;;;4.03;1.80;;;;;;;20.52;38.61;97024.47;5073400;28;20033;-61
2022/05/09 11:19:36;;;;;;;11.60;2.55;;;;;;;20.75;39.77;97022.00;5073190;28;20036;-62
2022/05/09 11:22:30;;;;;;;4.20;2.20;;;;;;;21.07;41.74;97015.31;5072850;28;20094;-62
2022/05/09 11:25:24;;;;;;;4.40;1.85;;;;;;;21.46;38.48;97020.44;5073435;28;20036;-62
2022/05/09 11:28:31;;;;;;;3.95;1.92;;;;;;;21.19;39.62;97016.22;5073222;28;20057;-62
2022/05/09 11:31:11;;;;;;;2.75;1.75;;;;;;;21.01;40.06;97015.78;5073016;28;20452;-62
2022/05/09 11:33:58;;;;;;;4.70;2.42;;;;;;;20.92;40.07;97014.63;5073239;28;20024;-62
2022/05/09 11:36:45;;;;;;;6.05;2.10;;;;;;;21.00;42.08;97014.91;5073296;28;20039;-62
2022/05/09 11:39:17;;;;;;;3.05;2.20;;;;;;;21.33;38.48;97021.38;5072619;28;20110;-62
2022/05/09 11:45:18;;;;;;;8.85;2.40;;;;;;;20.86;39.07;97009.72;5073422;28;20059;-62
2022/05/09 11:48:01;;;;;;;3.67;1.77;;;;;;;20.75;39.85;97021.13;5073003;28;20028;-62
2022/05/09 11:50:45;;;;;;;5.13;2.05;;;;;;;20.66;41.39;97012.00;5073018;28;20068;-62
2022/05/09 11:53:13;;;;;;;6.68;2.58;;;;;;;20.69;39.63;97015.31;5073187;28;20024;-62
2022/05/09 11:55:41;;;;;;;5.30;1.88;;;;;;;20.65;39.66;97015.63;5074573;28;20385;-62
2022/05/09 11:58:07;;;;;;;9.93;2.15;;;;;;;20.58;41.00;97015.22;5077051;28;20036;-62
2022/05/09 12:00:35;;;;;;;7.97;2.40;;;;;;;20.70;41.64;97013.47;5076810;28;20062;-62
2022/05/09 12:03:09;;;;;;;10.45;2.65;;;;;;;20.82;40.94;97003.78;5076774;28;20039;-63
2022/05/09 12:05:35;;;;;;;8.13;2.28;;;;;;;21.02;41.98;97006.81;5076900;28;20044;-62
2022/05/09 12:08:08;;;;;;;4.30;2.30;;;;;;;21.07;38.26;97000.19;5076768;28;20147;-62